createdAt,value
2019-05-21T00:00:26.482Z,15.40
2019-05-21T00:13:30.078Z,15.30
2019-05-21T00:16:00.564Z,15.30
2019-05-21T00:18:31.117Z,15.30
2019-05-21T00:21:01.552Z,15.30
2019-05-21T00:23:31.947Z,15.30
2019-05-21T00:26:02.435Z,15.20
2019-05-21T00:28:38.183Z,15.20
2019-05-21T00:31:44.653Z,15.20
2019-05-21T00:34:51.221Z,15.20
2019-05-21T00:37:58.783Z,15.20
2019-05-21T00:41:06.016Z,15.10
2019-05-21T00:43:46.457Z,15.10
2019-05-21T00:46:16.714Z,15.10
2019-05-21T00:48:47.304Z,15.10
2019-05-21T00:51:18.033Z,15.10
2019-05-21T00:53:48.726Z,15.00
2019-05-21T00:56:19.255Z,15.00
2019-05-21T00:58:49.447Z,15.00
2019-05-21T01:01:19.903Z,15.00
2019-05-21T01:03:50.400Z,15.00
2019-05-21T01:06:20.861Z,15.00
2019-05-21T01:08:51.328Z,14.90
2019-05-21T01:11:22.106Z,14.90
2019-05-21T01:13:52.551Z,14.90
2019-05-21T01:16:23.955Z,14.90
2019-05-21T01:18:54.514Z,14.90
2019-05-21T01:21:26.074Z,14.80
2019-05-21T01:23:56.561Z,14.80
2019-05-21T01:26:27.095Z,14.80
2019-05-21T01:28:57.520Z,14.80
2019-05-21T01:31:28.230Z,14.80
2019-05-21T01:33:58.842Z,14.80
2019-05-21T01:36:30.699Z,14.70
2019-05-21T01:39:01.201Z,14.70
2019-05-21T01:41:32.846Z,14.70
2019-05-21T01:44:03.518Z,14.70
2019-05-21T01:46:34.021Z,14.70
2019-05-21T01:49:04.599Z,14.70
2019-05-21T01:51:35.491Z,14.60
2019-05-21T01:54:05.973Z,14.60
2019-05-21T01:56:36.423Z,14.60
2019-05-21T01:59:06.855Z,14.60
2019-05-21T02:01:38.025Z,14.60
2019-05-21T02:04:08.898Z,14.60
2019-05-21T02:06:39.527Z,14.60
2019-05-21T02:09:10.189Z,14.50
2019-05-21T02:11:40.992Z,14.50
2019-05-21T02:14:11.730Z,14.40
2019-05-21T02:16:42.286Z,14.50
2019-05-21T02:19:15.734Z,14.40
2019-05-21T02:21:46.481Z,14.40
2019-05-21T02:24:17.021Z,14.40
2019-05-21T02:26:47.591Z,14.30
2019-05-21T02:29:18.146Z,14.40
2019-05-21T02:31:48.734Z,14.30
2019-05-21T02:34:19.534Z,14.30
2019-05-21T02:36:50.160Z,14.30
2019-05-21T02:39:20.762Z,14.30
2019-05-21T02:41:51.281Z,14.30
2019-05-21T02:44:22.294Z,14.30
2019-05-21T02:46:53.217Z,14.30
2019-05-21T02:49:23.750Z,14.20
2019-05-21T02:51:54.332Z,14.20
2019-05-21T02:54:40.349Z,14.10
2019-05-21T02:56:57.445Z,14.10
2019-05-21T02:59:27.906Z,14.10
2019-05-21T03:02:04.454Z,14.10
2019-05-21T03:04:34.958Z,14.00
2019-05-21T03:07:20.587Z,14.00
2019-05-21T03:09:51.167Z,14.10
2019-05-21T03:12:22.645Z,14.20
2019-05-21T03:14:53.295Z,14.20
2019-05-21T03:17:23.842Z,14.10
2019-05-21T03:19:54.363Z,14.10
2019-05-21T03:22:25.404Z,14.10
2019-05-21T03:24:55.931Z,14.20
2019-05-21T03:27:26.726Z,14.20
2019-05-21T03:29:57.483Z,14.20
2019-05-21T03:32:27.979Z,14.20
2019-05-21T03:34:58.425Z,14.10
2019-05-21T03:37:28.947Z,14.10
2019-05-21T03:40:00.261Z,14.10
2019-05-21T03:42:30.778Z,14.10
2019-05-21T03:45:01.416Z,14.10
2019-05-21T03:47:32.146Z,14.20
2019-05-21T03:50:02.734Z,14.30
2019-05-21T03:52:33.692Z,14.50
2019-05-21T03:55:04.569Z,14.40
2019-05-21T03:57:35.238Z,14.50
2019-05-21T04:00:07.561Z,14.60
2019-05-21T04:02:38.114Z,14.50
2019-05-21T04:08:05.652Z,14.50
2019-05-21T04:10:36.075Z,14.40
2019-05-21T04:13:07.337Z,14.40
2019-05-21T04:15:46.685Z,14.40
2019-05-21T04:18:22.995Z,14.40
2019-05-21T04:20:53.475Z,14.50
2019-05-21T04:23:24.515Z,14.50
2019-05-21T04:25:55.000Z,14.60
2019-05-21T04:28:25.242Z,14.60
2019-05-21T04:30:55.646Z,14.70
2019-05-21T04:33:26.490Z,14.70
2019-05-21T04:35:57.123Z,14.80
2019-05-21T04:38:27.694Z,14.70
2019-05-21T04:40:57.923Z,14.70
2019-05-21T04:43:28.478Z,14.70
2019-05-21T04:45:58.951Z,14.80
2019-05-21T04:48:29.119Z,14.90
2019-05-21T04:50:59.670Z,14.90
2019-05-21T04:53:30.089Z,14.90
2019-05-21T04:56:00.422Z,15.00
2019-05-21T04:58:30.623Z,15.00
2019-05-21T05:01:00.896Z,15.10
2019-05-21T05:03:31.264Z,15.10
2019-05-21T05:06:01.879Z,15.10
2019-05-21T05:08:33.055Z,15.20
2019-05-21T05:11:04.862Z,15.30
2019-05-21T05:13:39.172Z,15.40
2019-05-21T05:16:12.628Z,15.50
2019-05-21T05:18:48.756Z,15.60
2019-05-21T05:21:19.239Z,15.60
2019-05-21T05:23:56.140Z,15.70
2019-05-21T05:26:56.796Z,15.70
2019-05-21T05:29:28.538Z,15.80
2019-05-21T05:31:59.211Z,16.00
2019-05-21T05:34:29.477Z,16.20
2019-05-21T05:37:01.096Z,16.50
2019-05-21T05:39:31.434Z,17.00
2019-05-21T05:42:01.681Z,17.50
2019-05-21T05:44:31.944Z,17.80
2019-05-21T05:47:02.471Z,18.30
2019-05-21T05:49:37.896Z,18.70
2019-05-21T05:52:08.087Z,19.10
2019-05-21T05:54:38.311Z,19.30
2019-05-21T05:57:08.662Z,19.50
2019-05-21T05:59:38.896Z,19.90
2019-05-21T06:02:09.041Z,20.00
2019-05-21T06:04:39.856Z,19.90
2019-05-21T06:07:10.087Z,20.40
2019-05-21T06:09:40.353Z,20.50
2019-05-21T06:12:10.590Z,20.90
2019-05-21T06:14:40.877Z,20.90
2019-05-21T06:17:11.138Z,21.20
2019-05-21T06:19:41.759Z,21.40
2019-05-21T06:22:11.988Z,21.60
2019-05-21T06:24:42.194Z,21.90
2019-05-21T06:27:12.414Z,21.60
2019-05-21T06:29:42.675Z,21.80
2019-05-21T06:32:12.933Z,22.00
2019-05-21T06:34:43.065Z,21.80
2019-05-21T06:37:13.373Z,21.70
2019-05-21T06:39:43.583Z,22.20
2019-05-21T06:42:13.806Z,22.60
2019-05-21T06:44:44.077Z,22.40
2019-05-21T06:47:14.270Z,22.60
2019-05-21T06:49:44.810Z,22.50
2019-05-21T06:52:15.122Z,22.70
2019-05-21T06:54:45.389Z,22.60
2019-05-21T06:57:15.992Z,22.90
2019-05-21T06:59:46.309Z,23.50
2019-05-21T07:02:16.601Z,23.60
2019-05-21T07:04:47.124Z,23.60
2019-05-21T07:07:17.245Z,23.40
2019-05-21T07:09:47.483Z,23.50
2019-05-21T07:12:17.743Z,23.50
2019-05-21T07:14:48.284Z,23.70
2019-05-21T07:17:18.509Z,23.40
2019-05-21T07:19:48.802Z,23.40
2019-05-21T07:22:19.217Z,23.70
2019-05-21T07:24:49.387Z,23.70
2019-05-21T07:27:19.818Z,24.20
2019-05-21T07:29:50.101Z,24.90
2019-05-21T07:32:20.350Z,25.10
2019-05-21T07:34:50.646Z,25.10
2019-05-21T07:37:21.322Z,25.10
2019-05-21T07:39:51.585Z,25.20
2019-05-21T07:42:21.694Z,25.30
2019-05-21T07:44:51.823Z,25.10
2019-05-21T07:47:22.579Z,25.40
2019-05-21T07:49:52.761Z,25.90
2019-05-21T07:52:22.933Z,25.80
2019-05-21T07:54:53.126Z,25.70
2019-05-21T07:57:23.499Z,26.20
2019-05-21T07:59:54.753Z,26.30
2019-05-21T08:02:24.918Z,26.60
2019-05-21T08:04:55.247Z,26.30
2019-05-21T08:07:25.749Z,26.60
2019-05-21T08:09:55.893Z,26.90
2019-05-21T08:12:38.154Z,26.80
2019-05-21T08:14:58.257Z,26.70
2019-05-21T08:17:28.466Z,27.00
2019-05-21T08:20:08.743Z,27.00
2019-05-21T08:22:30.548Z,26.70
2019-05-21T08:25:00.772Z,27.20
2019-05-21T08:27:31.010Z,27.50
2019-05-21T08:30:01.279Z,27.60
2019-05-21T08:32:31.851Z,27.60
2019-05-21T08:35:02.290Z,27.30
2019-05-21T08:37:32.984Z,26.80
2019-05-21T08:40:03.247Z,27.00
2019-05-21T08:42:33.437Z,27.30
2019-05-21T08:45:04.234Z,28.10
2019-05-21T08:47:34.575Z,28.30
2019-05-21T08:50:05.776Z,28.40
2019-05-21T08:52:36.276Z,28.10
2019-05-21T08:55:06.863Z,27.90
2019-05-21T08:57:37.228Z,28.20
2019-05-21T09:00:08.924Z,28.10
2019-05-21T09:02:39.179Z,28.60
2019-05-21T09:05:09.652Z,29.30
2019-05-21T09:07:39.941Z,28.70
2019-05-21T09:10:11.421Z,29.20
2019-05-21T09:12:42.074Z,29.20
2019-05-21T09:15:15.064Z,29.10
2019-05-21T09:17:47.681Z,29.20
2019-05-21T09:20:18.773Z,29.70
2019-05-21T09:22:48.981Z,29.50
2019-05-21T09:25:19.386Z,28.10
2019-05-21T09:27:49.871Z,26.70
2019-05-21T09:30:21.666Z,26.10
2019-05-21T09:32:54.170Z,25.60
2019-05-21T09:35:24.431Z,25.40
2019-05-21T09:37:54.681Z,25.20
2019-05-21T09:40:25.424Z,25.00
2019-05-21T09:42:55.616Z,24.90
2019-05-21T09:45:27.447Z,24.40
2019-05-21T09:47:57.731Z,24.50
2019-05-21T09:50:28.935Z,25.30
2019-05-21T09:52:59.517Z,26.20
2019-05-21T09:55:33.623Z,26.80
2019-05-21T09:58:22.049Z,26.70
2019-05-21T10:01:12.484Z,25.80
2019-05-21T10:03:44.476Z,25.10
2019-05-21T10:06:15.072Z,24.90
2019-05-21T10:08:47.080Z,24.90
2019-05-21T10:11:17.763Z,26.30
2019-05-21T10:13:48.075Z,27.10
2019-05-21T10:16:18.310Z,26.40
2019-05-21T10:18:49.269Z,26.20
2019-05-21T10:21:19.900Z,25.80
2019-05-21T10:23:51.322Z,25.80
2019-05-21T10:26:21.619Z,27.10
2019-05-21T10:28:52.954Z,28.60
2019-05-21T10:31:23.159Z,29.60
2019-05-21T10:33:53.350Z,29.20
2019-05-21T10:36:23.779Z,28.60
2019-05-21T10:38:54.213Z,29.60
2019-05-21T10:41:24.682Z,30.00
2019-05-21T10:43:55.032Z,31.00
2019-05-21T10:46:25.746Z,31.10
2019-05-21T10:48:56.631Z,30.60
2019-05-21T10:51:26.813Z,30.60
2019-05-21T10:53:57.476Z,30.60
2019-05-21T10:56:27.823Z,30.50
2019-05-21T10:58:58.035Z,31.40
2019-05-21T11:01:45.340Z,30.40
2019-05-21T11:04:34.672Z,29.20
2019-05-21T11:07:05.628Z,28.30
2019-05-21T11:09:36.351Z,27.60
2019-05-21T11:12:08.158Z,26.90
2019-05-21T11:14:38.540Z,26.50
2019-05-21T11:17:12.852Z,26.30
2019-05-21T11:19:43.012Z,26.20
2019-05-21T11:22:13.507Z,26.20
2019-05-21T11:24:43.649Z,26.00
2019-05-21T11:27:14.113Z,26.20
2019-05-21T11:29:44.298Z,26.20
2019-05-21T11:32:15.562Z,25.70
2019-05-21T11:34:49.634Z,25.50
2019-05-21T11:37:17.799Z,25.90
2019-05-21T11:39:48.346Z,26.30
2019-05-21T11:42:18.753Z,26.80
2019-05-21T11:44:49.079Z,27.90
2019-05-21T11:47:19.650Z,29.00
2019-05-21T11:49:50.195Z,28.70
2019-05-21T11:52:20.568Z,27.80
2019-05-21T11:54:50.866Z,27.80
2019-05-21T11:57:21.080Z,28.40
2019-05-21T11:59:51.199Z,28.50
2019-05-21T12:02:21.463Z,28.30
2019-05-21T12:04:51.800Z,27.70
2019-05-21T12:07:22.049Z,27.90
2019-05-21T12:09:52.403Z,28.10
2019-05-21T12:12:23.618Z,27.90
2019-05-21T12:14:53.838Z,27.40
2019-05-21T12:17:24.013Z,27.40
2019-05-21T12:19:54.588Z,26.90
2019-05-21T12:22:24.910Z,26.40
2019-05-21T12:24:55.292Z,25.90
2019-05-21T12:27:25.623Z,25.90
2019-05-21T12:29:55.979Z,26.80
2019-05-21T12:32:26.440Z,28.60
2019-05-21T12:34:57.169Z,29.80
2019-05-21T12:37:27.565Z,30.30
2019-05-21T12:39:58.214Z,30.30
2019-05-21T12:42:29.027Z,29.20
2019-05-21T12:45:00.306Z,28.60
2019-05-21T12:47:31.107Z,28.30
2019-05-21T12:50:01.632Z,28.90
2019-05-21T12:52:33.956Z,30.10
2019-05-21T12:55:04.525Z,30.90
2019-05-21T12:57:35.221Z,32.10
2019-05-21T13:00:07.817Z,32.60
2019-05-21T13:02:38.203Z,33.20
2019-05-21T13:05:11.412Z,32.50
2019-05-21T13:07:40.563Z,32.30
2019-05-21T13:10:11.047Z,33.00
2019-05-21T13:12:41.534Z,34.00
2019-05-21T13:15:12.582Z,34.30
2019-05-21T13:17:42.830Z,34.10
2019-05-21T13:20:14.552Z,33.20
2019-05-21T13:22:44.980Z,32.90
2019-05-21T13:25:16.842Z,33.00
2019-05-21T13:27:47.570Z,32.50
2019-05-21T13:30:18.456Z,31.20
2019-05-21T13:32:49.020Z,30.00
2019-05-21T13:35:19.713Z,29.10
2019-05-21T13:37:51.615Z,28.30
2019-05-21T13:40:22.529Z,28.90
2019-05-21T13:42:53.124Z,29.20
2019-05-21T13:45:23.686Z,29.00
2019-05-21T13:47:55.510Z,29.10
2019-05-21T13:50:28.288Z,29.60
2019-05-21T13:52:58.537Z,29.70
2019-05-21T13:55:33.197Z,30.30
2019-05-21T13:58:01.107Z,30.80
2019-05-21T14:00:34.411Z,31.10
2019-05-21T14:03:05.876Z,30.60
2019-05-21T14:05:36.520Z,29.30
2019-05-21T14:08:06.929Z,28.80
2019-05-21T14:10:38.131Z,28.70
2019-05-21T14:13:08.720Z,28.70
2019-05-21T14:15:39.578Z,28.60
2019-05-21T14:18:09.999Z,28.30
2019-05-21T14:20:40.262Z,27.90
2019-05-21T14:23:10.691Z,27.70
2019-05-21T14:25:41.265Z,27.40
2019-05-21T14:28:11.808Z,27.20
2019-05-21T14:30:42.227Z,26.80
2019-05-21T14:33:12.628Z,27.00
2019-05-21T14:35:43.280Z,26.80
2019-05-21T14:38:13.566Z,26.50
2019-05-21T14:40:43.934Z,26.30
2019-05-21T14:43:14.580Z,25.90
2019-05-21T14:45:44.901Z,25.80
2019-05-21T14:48:15.365Z,25.50
2019-05-21T14:50:45.996Z,25.30
2019-05-21T14:53:16.347Z,25.20
2019-05-21T14:55:46.548Z,25.20
2019-05-21T14:58:17.035Z,25.10
2019-05-21T15:00:47.957Z,24.90
2019-05-21T15:03:25.408Z,24.70
2019-05-21T15:05:50.846Z,24.40
2019-05-21T15:08:21.042Z,24.20
2019-05-21T15:10:52.212Z,24.10
2019-05-21T15:13:22.420Z,24.10
2019-05-21T15:15:52.577Z,23.90
2019-05-21T15:18:23.004Z,23.90
2019-05-21T15:20:58.396Z,23.80
2019-05-21T15:23:28.967Z,23.70
2019-05-21T15:25:59.121Z,23.70
2019-05-21T15:28:29.483Z,23.80
2019-05-21T15:30:59.800Z,24.00
2019-05-21T15:33:30.065Z,24.10
2019-05-21T15:36:00.848Z,24.20
2019-05-21T15:38:48.476Z,24.30
2019-05-21T15:41:10.334Z,24.40
2019-05-21T15:43:35.216Z,24.50
2019-05-21T15:46:05.534Z,24.60
2019-05-21T15:48:36.000Z,24.50
2019-05-21T15:51:06.245Z,24.60
2019-05-21T15:53:36.649Z,24.70
2019-05-21T15:56:07.424Z,24.70
2019-05-21T15:58:38.074Z,24.60
2019-05-21T16:01:08.494Z,24.70
2019-05-21T16:03:38.945Z,24.70
2019-05-21T16:06:09.203Z,24.70
2019-05-21T16:08:39.638Z,24.60
2019-05-21T16:11:27.527Z,24.60
2019-05-21T16:13:42.060Z,24.70
2019-05-21T16:16:12.239Z,24.60
2019-05-21T16:18:43.886Z,24.40
2019-05-21T16:21:14.176Z,24.30
2019-05-21T16:23:44.966Z,24.30
2019-05-21T16:26:15.335Z,24.20
2019-05-21T16:28:46.553Z,24.20
2019-05-21T16:31:16.834Z,24.10
2019-05-21T16:33:47.360Z,24.00
2019-05-21T16:36:18.033Z,23.90
2019-05-21T16:38:48.223Z,23.90
2019-05-21T16:41:19.051Z,23.90
2019-05-21T16:43:49.355Z,23.90
2019-05-21T16:46:19.694Z,24.00
2019-05-21T16:48:50.010Z,23.90
2019-05-21T16:51:20.726Z,23.90
2019-05-21T16:53:51.265Z,23.80
2019-05-21T16:56:21.840Z,23.80
2019-05-21T16:58:52.170Z,23.60
2019-05-21T17:01:22.823Z,23.40
2019-05-21T17:03:59.806Z,23.30
2019-05-21T17:06:25.142Z,23.30
2019-05-21T17:08:55.521Z,23.30
2019-05-21T17:11:26.777Z,23.20
2019-05-21T17:13:57.751Z,23.20
2019-05-21T17:16:27.932Z,23.20
2019-05-21T17:18:58.088Z,23.10
2019-05-21T17:21:28.306Z,23.20
2019-05-21T17:23:58.555Z,23.20
2019-05-21T17:26:29.177Z,23.20
2019-05-21T17:29:00.720Z,23.10
2019-05-21T17:31:31.463Z,23.10
2019-05-21T17:34:01.705Z,23.10
2019-05-21T17:36:31.886Z,22.90
2019-05-21T17:39:05.344Z,22.90
2019-05-21T17:41:35.567Z,22.90
2019-05-21T17:44:05.886Z,22.80
2019-05-21T17:46:37.431Z,22.80
2019-05-21T17:49:07.642Z,22.80
2019-05-21T17:51:37.824Z,22.70
2019-05-21T17:54:08.062Z,22.70
2019-05-21T17:56:38.446Z,22.70
2019-05-21T17:59:08.633Z,22.60
2019-05-21T18:01:39.003Z,22.60
2019-05-21T18:04:09.279Z,22.50
2019-05-21T18:06:39.686Z,22.50
2019-05-21T18:09:13.599Z,22.50
2019-05-21T18:11:44.231Z,22.40
2019-05-21T18:14:14.392Z,22.40
2019-05-21T18:16:44.587Z,22.30
2019-05-21T18:19:16.026Z,22.20
2019-05-21T18:21:46.469Z,22.10
2019-05-21T18:24:16.789Z,22.10
2019-05-21T18:26:47.558Z,22.00
2019-05-21T18:29:17.769Z,22.00
2019-05-21T18:31:48.552Z,22.10
2019-05-21T18:34:18.860Z,22.00
2019-05-21T18:36:49.565Z,21.90
2019-05-21T18:39:20.638Z,21.90
2019-05-21T18:41:50.812Z,21.90
2019-05-21T18:44:21.145Z,21.90
2019-05-21T18:46:51.347Z,21.80
2019-05-21T18:49:21.968Z,21.60
2019-05-21T18:51:52.209Z,21.60
2019-05-21T18:54:22.441Z,21.50
2019-05-21T18:56:52.838Z,21.40
2019-05-21T18:59:23.152Z,21.40
2019-05-21T19:01:55.533Z,21.40
2019-05-21T19:04:25.964Z,21.40
2019-05-21T19:06:56.219Z,21.30
2019-05-21T19:09:26.674Z,21.30
2019-05-21T19:11:57.332Z,21.30
2019-05-21T19:14:27.465Z,21.20
2019-05-21T19:16:57.768Z,21.10
2019-05-21T19:19:27.940Z,21.00
2019-05-21T19:21:58.160Z,21.00
2019-05-21T19:24:28.655Z,20.90
2019-05-21T19:26:59.062Z,20.90
2019-05-21T19:29:29.428Z,20.80
2019-05-21T19:31:59.955Z,20.80
2019-05-21T19:34:30.183Z,20.80
2019-05-21T19:37:00.457Z,20.80
2019-05-21T19:39:31.839Z,20.80
2019-05-21T19:42:01.959Z,20.80
2019-05-21T19:44:32.162Z,20.70
2019-05-21T19:47:02.639Z,20.60
2019-05-21T19:49:33.092Z,20.70
2019-05-21T19:52:03.495Z,20.60
2019-05-21T19:54:34.065Z,20.70
2019-05-21T19:57:04.780Z,20.70
2019-05-21T19:59:34.894Z,20.70
2019-05-21T20:02:06.507Z,20.60
2019-05-21T20:04:37.323Z,20.60
2019-05-21T20:07:09.857Z,20.70
2019-05-21T20:09:39.976Z,20.60
2019-05-21T20:12:10.824Z,20.50
2019-05-21T20:14:41.516Z,20.50
2019-05-21T20:17:12.294Z,20.60
2019-05-21T20:19:43.862Z,20.60
2019-05-21T20:22:14.366Z,20.50
2019-05-21T20:24:45.859Z,20.20
2019-05-21T20:27:17.053Z,19.90
2019-05-21T20:29:47.974Z,19.70
2019-05-21T20:32:22.297Z,19.40
2019-05-21T20:34:53.078Z,19.20
2019-05-21T20:37:26.211Z,18.90
2019-05-21T20:39:57.840Z,18.80
2019-05-21T20:42:30.861Z,18.70
2019-05-21T20:45:02.527Z,18.50
2019-05-21T20:47:33.245Z,18.40
2019-05-21T20:50:07.142Z,18.30
2019-05-21T20:52:39.273Z,18.20
2019-05-21T20:55:10.275Z,18.20
2019-05-21T20:57:40.521Z,18.10
2019-05-21T21:00:13.347Z,18.10
2019-05-21T21:02:45.649Z,18.10
2019-05-21T21:05:16.987Z,18.10
2019-05-21T21:07:47.434Z,18.00
2019-05-21T21:10:18.385Z,18.00
2019-05-21T21:12:49.398Z,18.00
2019-05-21T21:15:20.185Z,18.00
2019-05-21T21:17:50.733Z,17.90
2019-05-21T21:20:21.172Z,17.90
2019-05-21T21:22:51.921Z,17.80
2019-05-21T21:25:24.240Z,17.70
2019-05-21T21:27:54.888Z,17.70
2019-05-21T21:30:25.630Z,17.70
2019-05-21T21:32:56.757Z,17.70
2019-05-21T21:35:27.164Z,17.50
2019-05-21T21:37:57.405Z,17.50
2019-05-21T21:40:27.823Z,17.40
2019-05-21T21:42:58.648Z,17.40
2019-05-21T21:45:29.833Z,17.40
2019-05-21T21:48:01.287Z,17.20
2019-05-21T21:50:32.825Z,17.20
2019-05-21T21:53:03.478Z,17.30
2019-05-21T21:55:34.011Z,17.30
2019-05-21T21:58:04.302Z,17.30
2019-05-21T22:01:20.636Z,17.20
2019-05-21T22:03:51.161Z,17.20
2019-05-21T22:06:23.312Z,17.10
2019-05-21T22:08:54.716Z,17.00
2019-05-21T22:11:25.074Z,17.00
2019-05-21T22:13:56.240Z,17.10
2019-05-21T22:16:26.526Z,17.10
2019-05-21T22:18:57.211Z,17.10
2019-05-21T22:21:27.786Z,17.00
2019-05-21T22:23:59.201Z,17.10
2019-05-21T22:26:30.194Z,17.20
2019-05-21T22:29:00.729Z,17.30
2019-05-21T22:31:31.024Z,17.30
2019-05-21T22:34:01.255Z,17.30
2019-05-21T22:36:31.659Z,17.30
2019-05-21T22:39:01.941Z,17.30
2019-05-21T22:41:33.806Z,17.30
2019-05-21T22:44:05.197Z,17.20
2019-05-21T22:46:35.470Z,17.20
2019-05-21T22:49:05.676Z,17.20
2019-05-21T22:51:35.950Z,17.20
2019-05-21T22:54:06.190Z,17.20
2019-05-21T22:56:36.470Z,17.20
2019-05-21T22:59:06.809Z,17.20
2019-05-21T23:01:37.925Z,17.20
2019-05-21T23:04:08.939Z,17.20
2019-05-21T23:06:39.241Z,17.30
2019-05-21T23:09:10.772Z,17.20
2019-05-21T23:11:40.935Z,17.20
2019-05-21T23:14:11.520Z,17.20
2019-05-21T23:16:44.020Z,17.20
2019-05-21T23:19:24.137Z,17.20
2019-05-21T23:21:56.623Z,17.10
2019-05-21T23:24:27.251Z,17.10
2019-05-21T23:26:57.658Z,17.10
2019-05-21T23:29:29.210Z,17.00
2019-05-21T23:31:59.373Z,17.00
2019-05-21T23:34:31.274Z,16.90
2019-05-21T23:37:02.773Z,16.90
2019-05-21T23:39:34.662Z,16.90
2019-05-21T23:42:07.612Z,16.90
2019-05-21T23:44:37.975Z,16.90
2019-05-21T23:47:12.637Z,16.80
2019-05-21T23:49:42.949Z,16.80
2019-05-21T23:52:14.519Z,16.80
2019-05-21T23:54:44.912Z,16.70
2019-05-21T23:57:20.503Z,16.80
2019-05-21T23:59:51.157Z,16.80
